Time;durP1;ratioP1;P1;durP2;ratioP2;P2;SDS_P1;SDS_P2;PMS_P1;PMS_P2;Temp;Humidity;BMP_temperature;BMP_pressure;BME280_temperature;BME280_humidity;BME280_pressure;Samples;Min_cycle;Max_cycle;Signal;HPM_P1;HPM_P2
2023/05/25 00:00:50;;;;;;;5.15;3.38;;;;;;;;;;5037804;28;20294;-83
2023/05/25 00:03:19;;;;;;;4.93;3.05;;;;;;;;;;5039032;28;20251;-83
2023/05/25 00:05:47;;;;;;;6.65;4.05;;;;;;;;;;5037540;28;20256;-82
2023/05/25 00:08:15;;;;;;;5.07;3.60;;;;;;;;;;5038950;28;20721;-81
2023/05/25 00:10:44;;;;;;;4.93;3.92;;;;;;;;;;5039262;28;20201;-83
2023/05/25 00:13:12;;;;;;;10.45;4.50;;;;;;;;;;5039008;28;20252;-82
2023/05/25 00:15:39;;;;;;;7.35;3.78;;;;;;;;;;5038238;28;20272;-83
2023/05/25 00:18:07;;;;;;;7.50;4.90;;;;;;;;;;5038046;28;20241;-82
2023/05/25 00:20:34;;;;;;;6.40;4.93;;;;;;;;;;5037163;28;20228;-83
2023/05/25 00:23:02;;;;;;;7.10;4.13;;;;;;;;;;5036884;28;20241;-82
2023/05/25 00:25:30;;;;;;;6.43;4.10;;;;;;;;;;5036741;28;20312;-82
2023/05/25 00:27:59;;;;;;;5.00;3.88;;;;;;;;;;5036465;28;20260;-81
2023/05/25 00:30:26;;;;;;;10.20;3.88;;;;;;;;;;5037177;28;20667;-82
2023/05/25 00:32:54;;;;;;;8.80;4.45;;;;;;;;;;5036576;28;20734;-82
2023/05/25 00:35:21;;;;;;;7.15;4.03;;;;;;;;;;5036029;28;20653;-83
2023/05/25 00:37:50;;;;;;;5.90;3.47;;;;;;;;;;5036448;28;20389;-83
2023/05/25 00:40:18;;;;;;;6.65;3.72;;;;;;;;;;5036448;28;20249;-83
2023/05/25 00:42:45;;;;;;;5.93;4.07;;;;;;;;;;5036848;28;20300;-83
2023/05/25 00:45:14;;;;;;;7.15;5.22;;;;;;;;;;5036091;28;20249;-82
2023/05/25 00:47:43;;;;;;;7.28;5.10;;;;;;;;;;5035824;28;20256;-82
2023/05/25 00:50:11;;;;;;;7.70;4.65;;;;;;;;;;5047587;28;20288;-83
2023/05/25 00:52:39;;;;;;;6.15;4.60;;;;;;;;;;5056147;28;20288;-81
2023/05/25 00:55:08;;;;;;;7.32;4.30;;;;;;;;;;5055877;28;20256;-82
2023/05/25 00:57:36;;;;;;;5.75;4.60;;;;;;;;;;5056371;28;20202;-83
2023/05/25 01:00:09;;;;;;;6.47;5.13;;;;;;;;;;5055510;28;20244;-82
2023/05/25 01:02:38;;;;;;;7.80;4.50;;;;;;;;;;5041989;28;20211;-81
2023/05/25 01:05:08;;;;;;;9.57;5.30;;;;;;;;;;5016063;28;20242;-81
2023/05/25 01:07:37;;;;;;;9.38;4.97;;;;;;;;;;5015739;28;20206;-82
2023/05/25 01:10:07;;;;;;;8.18;5.70;;;;;;;;;;5015741;28;20735;-82
2023/05/25 01:12:39;;;;;;;11.98;5.22;;;;;;;;;;5016558;28;20203;-81
2023/05/25 01:15:08;;;;;;;16.60;6.65;;;;;;;;;;5016122;28;20223;-81
2023/05/25 01:17:37;;;;;;;8.38;5.18;;;;;;;;;;5015478;28;20199;-82
2023/05/25 01:20:08;;;;;;;10.43;4.50;;;;;;;;;;5027217;28;20206;-81
2023/05/25 01:22:42;;;;;;;9.27;5.15;;;;;;;;;;5035629;28;20230;-81
2023/05/25 01:25:15;;;;;;;6.40;4.43;;;;;;;;;;5035061;28;20238;-81
2023/05/25 01:27:47;;;;;;;5.90;4.57;;;;;;;;;;5035720;28;20668;-83
2023/05/25 01:30:16;;;;;;;9.80;5.65;;;;;;;;;;5035500;28;20591;-82
2023/05/25 01:32:44;;;;;;;12.65;5.28;;;;;;;;;;5035525;28;20638;-81
2023/05/25 01:35:12;;;;;;;8.20;4.93;;;;;;;;;;5035159;28;20685;-81
2023/05/25 01:37:46;;;;;;;6.35;4.35;;;;;;;;;;5034944;28;20294;-81
2023/05/25 01:40:15;;;;;;;7.95;5.93;;;;;;;;;;5034556;28;20300;-81
2023/05/25 01:42:42;;;;;;;7.15;4.78;;;;;;;;;;5034634;28;20303;-82
2023/05/25 01:45:11;;;;;;;6.57;4.45;;;;;;;;;;5033974;28;20313;-82
2023/05/25 01:47:46;;;;;;;6.03;4.78;;;;;;;;;;5034346;28;20206;-83
2023/05/25 01:50:22;;;;;;;6.57;5.40;;;;;;;;;;5035128;28;20720;-82
2023/05/25 01:52:58;;;;;;;7.63;5.35;;;;;;;;;;5034684;28;20642;-82
2023/05/25 01:55:28;;;;;;;5.78;5.07;;;;;;;;;;5033791;28;20221;-83
2023/05/25 01:57:57;;;;;;;9.57;5.80;;;;;;;;;;5034292;28;20232;-82
2023/05/25 02:00:26;;;;;;;14.18;6.88;;;;;;;;;;5035009;28;20211;-82
2023/05/25 02:02:54;;;;;;;7.85;5.32;;;;;;;;;;5034605;28;20226;-82
2023/05/25 02:05:22;;;;;;;10.23;5.72;;;;;;;;;;5035171;28;20239;-81
2023/05/25 02:07:51;;;;;;;10.18;6.07;;;;;;;;;;5034884;28;20198;-83
2023/05/25 02:10:18;;;;;;;9.60;6.38;;;;;;;;;;5034670;28;20210;-82
2023/05/25 02:12:46;;;;;;;9.02;5.93;;;;;;;;;;5034367;28;20289;-83
2023/05/25 02:15:13;;;;;;;8.55;5.55;;;;;;;;;;5034325;28;20322;-82
2023/05/25 02:17:42;;;;;;;7.90;5.45;;;;;;;;;;5033969;28;20289;-83
2023/05/25 02:20:11;;;;;;;8.70;6.03;;;;;;;;;;5034111;28;20213;-81
2023/05/25 02:22:38;;;;;;;9.10;5.03;;;;;;;;;;5034139;28;20218;-82
2023/05/25 02:25:08;;;;;;;8.65;6.32;;;;;;;;;;5034894;28;20257;-81
2023/05/25 02:27:36;;;;;;;9.27;5.20;;;;;;;;;;5034803;28;20687;-81
2023/05/25 02:30:05;;;;;;;8.60;6.28;;;;;;;;;;5034589;28;20297;-82
2023/05/25 02:32:32;;;;;;;5.68;5.03;;;;;;;;;;5034328;28;20260;-81
2023/05/25 02:35:00;;;;;;;7.50;5.22;;;;;;;;;;5034393;28;20226;-82
2023/05/25 02:37:27;;;;;;;5.70;4.55;;;;;;;;;;5034170;28;20206;-81
2023/05/25 02:39:55;;;;;;;9.18;6.25;;;;;;;;;;5034240;28;20292;-82
2023/05/25 02:42:23;;;;;;;10.45;5.75;;;;;;;;;;5033601;28;20294;-81
2023/05/25 02:44:51;;;;;;;8.98;5.63;;;;;;;;;;5034101;28;20292;-82
2023/05/25 02:47:20;;;;;;;7.45;5.82;;;;;;;;;;5033616;28;20202;-82
2023/05/25 02:49:48;;;;;;;4.65;4.13;;;;;;;;;;5033788;28;20238;-82
2023/05/25 02:52:15;;;;;;;7.93;5.35;;;;;;;;;;5033558;28;20230;-83
2023/05/25 02:54:43;;;;;;;8.13;5.60;;;;;;;;;;5033678;28;20258;-82
2023/05/25 02:57:10;;;;;;;9.05;6.28;;;;;;;;;;5033612;28;20285;-83
2023/05/25 02:59:39;;;;;;;7.07;5.88;;;;;;;;;;5033885;28;20297;-83
2023/05/25 03:02:07;;;;;;;7.63;5.43;;;;;;;;;;5033949;28;20228;-83
2023/05/25 03:04:36;;;;;;;12.02;6.93;;;;;;;;;;5034250;28;20317;-82
2023/05/25 03:07:04;;;;;;;12.02;6.97;;;;;;;;;;5033723;28;20217;-82
2023/05/25 03:09:31;;;;;;;9.93;5.80;;;;;;;;;;5033478;28;20205;-83
2023/05/25 03:11:59;;;;;;;9.35;6.38;;;;;;;;;;5033732;28;20648;-82
2023/05/25 03:14:26;;;;;;;8.13;5.95;;;;;;;;;;5033790;28;20760;-81
2023/05/25 03:16:55;;;;;;;11.15;6.68;;;;;;;;;;5033489;28;20301;-81
2023/05/25 03:19:23;;;;;;;8.40;7.57;;;;;;;;;;5031434;28;20212;-81
2023/05/25 03:21:50;;;;;;;12.38;7.50;;;;;;;;;;5033615;28;20232;-82
2023/05/25 03:24:18;;;;;;;11.57;7.78;;;;;;;;;;5033775;28;20202;-81
2023/05/25 03:26:45;;;;;;;12.15;6.72;;;;;;;;;;5033262;28;20233;-82
2023/05/25 03:29:13;;;;;;;14.35;7.63;;;;;;;;;;5033484;28;20860;-82
2023/05/25 03:31:40;;;;;;;9.00;6.65;;;;;;;;;;5032596;28;20293;-81
2023/05/25 03:34:09;;;;;;;7.72;6.85;;;;;;;;;;5036595;28;20233;-81
2023/05/25 03:36:37;;;;;;;8.65;6.32;;;;;;;;;;5039008;28;20559;-83
2023/05/25 03:39:05;;;;;;;8.15;6.10;;;;;;;;;;5038538;28;20666;-83
2023/05/25 03:41:33;;;;;;;11.02;6.40;;;;;;;;;;5038806;28;20225;-84
2023/05/25 03:44:00;;;;;;;11.68;7.32;;;;;;;;;;5038270;28;20222;-83
2023/05/25 03:46:28;;;;;;;9.13;7.50;;;;;;;;;;5038247;28;20646;-84
2023/05/25 03:48:56;;;;;;;9.52;7.40;;;;;;;;;;5038310;28;20284;-82
2023/05/25 03:51:24;;;;;;;13.00;7.35;;;;;;;;;;5038584;28;20225;-84
2023/05/25 03:53:52;;;;;;;8.07;6.40;;;;;;;;;;5039186;28;20302;-84
2023/05/25 03:56:20;;;;;;;10.10;7.57;;;;;;;;;;5038770;28;20232;-82
2023/05/25 03:58:47;;;;;;;9.23;7.45;;;;;;;;;;5038807;28;20621;-84
2023/05/25 04:01:15;;;;;;;11.40;8.45;;;;;;;;;;5038638;28;20301;-83
2023/05/25 04:03:42;;;;;;;10.35;7.57;;;;;;;;;;5039274;28;20237;-82
2023/05/25 04:06:10;;;;;;;11.68;7.60;;;;;;;;;;5039204;28;20316;-83
2023/05/25 04:08:39;;;;;;;12.85;8.50;;;;;;;;;;5038760;28;20206;-83
2023/05/25 04:11:07;;;;;;;12.05;7.82;;;;;;;;;;5039551;28;20206;-82
2023/05/25 04:13:35;;;;;;;14.65;8.93;;;;;;;;;;5039190;28;20217;-82
2023/05/25 04:16:03;;;;;;;19.13;7.97;;;;;;;;;;5038847;28;20260;-81
2023/05/25 04:18:30;;;;;;;11.25;7.68;;;;;;;;;;5039553;28;20293;-82
2023/05/25 04:20:58;;;;;;;12.05;7.70;;;;;;;;;;5039667;28;20202;-81
2023/05/25 04:23:26;;;;;;;13.07;9.00;;;;;;;;;;5039545;28;20600;-82
2023/05/25 04:25:55;;;;;;;11.57;7.88;;;;;;;;;;5038946;28;20222;-83
2023/05/25 04:28:22;;;;;;;11.80;9.93;;;;;;;;;;5038407;28;20266;-81
2023/05/25 04:30:50;;;;;;;10.90;8.77;;;;;;;;;;5038075;28;20289;-81
2023/05/25 04:33:18;;;;;;;11.60;7.88;;;;;;;;;;5038524;28;20265;-82
2023/05/25 04:35:45;;;;;;;11.27;7.38;;;;;;;;;;5037402;28;20236;-83
2023/05/25 04:38:16;;;;;;;10.18;7.75;;;;;;;;;;5037540;28;20268;-83
2023/05/25 04:40:45;;;;;;;7.13;6.43;;;;;;;;;;5037930;28;20213;-83
2023/05/25 04:43:17;;;;;;;8.70;6.80;;;;;;;;;;5039281;28;20667;-83
2023/05/25 04:45:45;;;;;;;10.43;7.40;;;;;;;;;;5038997;28;20245;-83
2023/05/25 04:48:13;;;;;;;9.15;7.55;;;;;;;;;;5040127;28;20202;-82
2023/05/25 04:50:41;;;;;;;8.55;6.80;;;;;;;;;;5039555;28;20203;-82
2023/05/25 04:53:09;;;;;;;7.68;6.95;;;;;;;;;;5039355;28;20233;-84
2023/05/25 04:55:37;;;;;;;14.52;7.22;;;;;;;;;;5039047;28;20227;-83
2023/05/25 04:58:05;;;;;;;8.98;6.18;;;;;;;;;;5038826;28;20206;-82
2023/05/25 05:00:34;;;;;;;6.60;5.95;;;;;;;;;;5040128;28;20682;-83
2023/05/25 05:03:01;;;;;;;13.35;9.40;;;;;;;;;;5040110;28;20226;-82
2023/05/25 05:05:29;;;;;;;13.77;8.60;;;;;;;;;;5040025;28;20253;-83
2023/05/25 05:07:56;;;;;;;8.73;7.78;;;;;;;;;;5040521;28;20244;-82
2023/05/25 05:10:24;;;;;;;9.73;7.53;;;;;;;;;;5039540;28;20609;-83
2023/05/25 05:12:52;;;;;;;6.88;5.53;;;;;;;;;;5039539;28;20655;-82
2023/05/25 05:15:19;;;;;;;4.70;4.03;;;;;;;;;;5039498;28;20253;-84
2023/05/25 05:17:48;;;;;;;7.85;5.97;;;;;;;;;;5039578;28;20293;-83
2023/05/25 05:20:15;;;;;;;7.22;6.05;;;;;;;;;;5039669;28;20677;-84
2023/05/25 05:22:44;;;;;;;4.95;4.45;;;;;;;;;;5039980;28;20262;-83
2023/05/25 05:25:11;;;;;;;8.02;7.03;;;;;;;;;;5038545;28;20248;-81
2023/05/25 05:27:39;;;;;;;10.20;8.63;;;;;;;;;;5039082;28;20628;-81
2023/05/25 05:30:08;;;;;;;9.02;7.85;;;;;;;;;;5038221;28;20344;-82
2023/05/25 05:32:36;;;;;;;6.15;5.50;;;;;;;;;;5036827;28;20234;-82
2023/05/25 05:35:05;;;;;;;7.25;5.75;;;;;;;;;;5037082;28;20297;-84
2023/05/25 05:37:33;;;;;;;10.25;7.38;;;;;;;;;;5038427;28;20290;-84
2023/05/25 05:40:00;;;;;;;10.00;8.50;;;;;;;;;;5037891;28;20198;-83
2023/05/25 05:42:28;;;;;;;12.63;9.25;;;;;;;;;;5037297;28;20272;-83
2023/05/25 05:44:56;;;;;;;11.00;8.75;;;;;;;;;;5038474;28;20293;-84
2023/05/25 05:47:23;;;;;;;14.20;9.40;;;;;;;;;;5038444;28;20202;-83
2023/05/25 05:49:51;;;;;;;13.73;9.02;;;;;;;;;;5037225;28;20297;-82
2023/05/25 05:52:20;;;;;;;9.10;7.07;;;;;;;;;;5038738;28;20426;-82
2023/05/25 05:54:47;;;;;;;11.05;7.60;;;;;;;;;;5038007;28;20314;-85
2023/05/25 05:57:15;;;;;;;13.70;7.93;;;;;;;;;;5037411;28;20202;-84
2023/05/25 05:59:42;;;;;;;15.88;8.95;;;;;;;;;;5038318;28;20230;-85
2023/05/25 06:02:10;;;;;;;8.60;7.80;;;;;;;;;;5038234;28;20213;-82
2023/05/25 06:04:37;;;;;;;13.25;7.88;;;;;;;;;;5038159;28;20260;-83
2023/05/25 06:07:05;;;;;;;11.18;8.13;;;;;;;;;;5038679;28;20315;-82
2023/05/25 06:09:34;;;;;;;10.98;7.20;;;;;;;;;;5037903;28;20290;-82
2023/05/25 06:12:02;;;;;;;12.10;7.60;;;;;;;;;;5038463;28;20209;-81
2023/05/25 06:14:30;;;;;;;13.57;9.00;;;;;;;;;;5038177;28;20218;-83
2023/05/25 06:16:57;;;;;;;9.77;7.15;;;;;;;;;;5039658;28;20215;-82
2023/05/25 06:19:25;;;;;;;10.07;7.95;;;;;;;;;;5038214;28;20202;-83
2023/05/25 06:21:52;;;;;;;14.05;8.40;;;;;;;;;;5036400;28;20293;-83
2023/05/25 06:24:20;;;;;;;12.75;8.85;;;;;;;;;;5035120;28;20225;-84
2023/05/25 06:26:49;;;;;;;9.82;8.25;;;;;;;;;;5035964;28;20218;-84
2023/05/25 06:29:16;;;;;;;9.55;7.57;;;;;;;;;;5036398;28;20253;-84
2023/05/25 06:31:44;;;;;;;15.80;8.10;;;;;;;;;;5036672;28;20238;-82
2023/05/25 06:34:12;;;;;;;9.65;6.90;;;;;;;;;;5036406;28;20262;-83
2023/05/25 06:36:39;;;;;;;10.88;7.82;;;;;;;;;;5036885;28;20261;-81
2023/05/25 06:39:07;;;;;;;10.38;7.00;;;;;;;;;;5036933;28;20289;-85
2023/05/25 06:41:34;;;;;;;13.25;7.97;;;;;;;;;;5036804;28;20213;-83
2023/05/25 06:44:03;;;;;;;9.50;7.80;;;;;;;;;;5036778;28;20309;-82
2023/05/25 06:46:31;;;;;;;8.60;7.60;;;;;;;;;;5036535;28;20205;-82
2023/05/25 06:48:59;;;;;;;9.00;8.10;;;;;;;;;;5035372;28;20237;-84
2023/05/25 06:51:27;;;;;;;9.05;7.30;;;;;;;;;;5035555;28;20204;-82
2023/05/25 06:53:55;;;;;;;9.55;8.55;;;;;;;;;;5035187;28;20296;-82
2023/05/25 06:56:23;;;;;;;12.85;8.68;;;;;;;;;;5035955;28;20639;-82
2023/05/25 06:58:51;;;;;;;12.80;7.93;;;;;;;;;;5035879;28;20202;-82
2023/05/25 07:01:20;;;;;;;10.50;8.00;;;;;;;;;;5035764;28;20289;-82
2023/05/25 07:03:47;;;;;;;9.80;7.63;;;;;;;;;;5034925;28;20216;-83
2023/05/25 07:06:15;;;;;;;8.50;7.07;;;;;;;;;;5035899;28;20314;-82
2023/05/25 07:08:43;;;;;;;5.40;4.70;;;;;;;;;;5036788;28;20226;-82
2023/05/25 07:11:12;;;;;;;10.18;7.28;;;;;;;;;;5037031;28;20284;-83
2023/05/25 07:13:40;;;;;;;10.75;7.32;;;;;;;;;;5036081;28;20240;-83
2023/05/25 07:16:08;;;;;;;10.68;7.80;;;;;;;;;;5035945;28;20280;-85
2023/05/25 07:18:39;;;;;;;6.55;5.40;;;;;;;;;;5035576;28;20643;-84
2023/05/25 07:21:08;;;;;;;10.88;7.75;;;;;;;;;;5035698;28;20289;-84
2023/05/25 07:23:36;;;;;;;10.57;8.13;;;;;;;;;;5035775;28;20198;-84
2023/05/25 07:26:03;;;;;;;6.40;5.63;;;;;;;;;;5036093;28;20226;-83
2023/05/25 07:28:31;;;;;;;7.65;5.95;;;;;;;;;;5035622;28;20697;-83
2023/05/25 07:30:58;;;;;;;5.57;5.07;;;;;;;;;;5035434;28;20285;-84
2023/05/25 07:33:26;;;;;;;7.82;6.45;;;;;;;;;;5036143;28;20297;-84
2023/05/25 07:35:55;;;;;;;9.77;7.15;;;;;;;;;;5035777;28;20236;-85
2023/05/25 07:38:23;;;;;;;7.72;6.82;;;;;;;;;;5035925;28;20206;-84
2023/05/25 07:40:51;;;;;;;6.30;5.63;;;;;;;;;;5035646;28;20305;-84
2023/05/25 07:43:18;;;;;;;7.55;5.72;;;;;;;;;;5034933;28;20202;-83
2023/05/25 07:45:46;;;;;;;6.40;5.80;;;;;;;;;;5036005;28;20226;-83
2023/05/25 07:48:13;;;;;;;8.05;7.25;;;;;;;;;;5035769;28;20269;-83
2023/05/25 07:50:41;;;;;;;9.95;6.65;;;;;;;;;;5035659;28;20212;-83
2023/05/25 07:53:10;;;;;;;8.65;6.97;;;;;;;;;;5036570;28;20237;-81
2023/05/25 07:55:37;;;;;;;6.15;5.55;;;;;;;;;;5035897;28;20301;-82
2023/05/25 07:58:06;;;;;;;5.90;5.28;;;;;;;;;;5036025;28;20288;-82
2023/05/25 08:00:33;;;;;;;8.25;5.45;;;;;;;;;;5036254;28;20203;-83
2023/05/25 08:03:02;;;;;;;7.55;6.38;;;;;;;;;;5036954;28;20662;-83
2023/05/25 08:05:29;;;;;;;9.50;6.85;;;;;;;;;;5036297;28;20230;-84
2023/05/25 08:07:57;;;;;;;8.93;6.55;;;;;;;;;;5035926;28;20296;-83
2023/05/25 08:10:30;;;;;;;7.63;6.63;;;;;;;;;;5035027;28;20237;-83
2023/05/25 08:12:57;;;;;;;8.75;6.00;;;;;;;;;;5036937;28;20209;-84
2023/05/25 08:15:25;;;;;;;8.35;5.80;;;;;;;;;;5035780;28;20220;-84
2023/05/25 08:17:52;;;;;;;5.85;5.25;;;;;;;;;;5035698;28;20589;-84
2023/05/25 08:20:20;;;;;;;8.23;5.97;;;;;;;;;;5041134;28;20238;-82
2023/05/25 08:22:48;;;;;;;7.55;5.93;;;;;;;;;;5039786;28;20655;-85
2023/05/25 08:25:16;;;;;;;10.63;6.55;;;;;;;;;;5038865;28;20258;-84
2023/05/25 08:27:45;;;;;;;10.15;6.93;;;;;;;;;;5039169;28;20237;-82
2023/05/25 08:30:14;;;;;;;6.30;4.70;;;;;;;;;;5039368;28;20214;-82
2023/05/25 08:32:41;;;;;;;8.80;7.90;;;;;;;;;;5039569;28;20290;-84
2023/05/25 08:35:12;;;;;;;12.05;8.95;;;;;;;;;;5038534;28;20659;-83
2023/05/25 08:37:41;;;;;;;11.35;7.45;;;;;;;;;;5038712;28;20252;-82
2023/05/25 08:40:16;;;;;;;13.98;7.35;;;;;;;;;;5038390;28;20226;-83
2023/05/25 08:42:46;;;;;;;6.50;5.85;;;;;;;;;;5038594;28;20202;-84
2023/05/25 08:45:13;;;;;;;9.98;7.85;;;;;;;;;;5038874;28;20229;-82
2023/05/25 08:47:43;;;;;;;8.20;7.28;;;;;;;;;;5038571;28;20234;-82
2023/05/25 08:50:12;;;;;;;14.25;8.48;;;;;;;;;;5038403;28;20265;-82
2023/05/25 08:52:40;;;;;;;8.80;7.18;;;;;;;;;;5039212;28;20685;-83
2023/05/25 08:55:10;;;;;;;10.02;8.13;;;;;;;;;;5039245;28;20219;-82
2023/05/25 08:57:46;;;;;;;13.13;8.82;;;;;;;;;;5038681;28;20289;-82
2023/05/25 09:00:15;;;;;;;10.95;8.65;;;;;;;;;;5038683;28;20230;-82
2023/05/25 09:02:50;;;;;;;9.50;7.72;;;;;;;;;;5037891;28;20913;-84
2023/05/25 09:05:18;;;;;;;13.65;8.52;;;;;;;;;;5038653;28;20651;-83
2023/05/25 09:07:46;;;;;;;15.02;8.77;;;;;;;;;;5040234;28;20285;-85
2023/05/25 09:10:15;;;;;;;13.45;9.43;;;;;;;;;;5040211;28;20230;-82
2023/05/25 09:12:44;;;;;;;13.63;9.27;;;;;;;;;;5036886;28;20212;-84
2023/05/25 09:15:12;;;;;;;13.80;11.60;;;;;;;;;;5034671;28;20226;-81
2023/05/25 09:17:40;;;;;;;11.80;9.02;;;;;;;;;;5034866;28;20199;-81
2023/05/25 09:20:09;;;;;;;11.13;8.95;;;;;;;;;;5034770;28;20296;-82
2023/05/25 09:22:37;;;;;;;12.55;9.48;;;;;;;;;;5035073;28;20573;-82
2023/05/25 09:25:08;;;;;;;12.45;9.52;;;;;;;;;;5034367;28;20218;-82
2023/05/25 09:27:37;;;;;;;10.05;8.68;;;;;;;;;;5034899;28;20428;-82
2023/05/25 09:30:07;;;;;;;11.60;8.82;;;;;;;;;;5034779;28;20209;-82
2023/05/25 09:32:36;;;;;;;12.15;10.10;;;;;;;;;;5034609;28;20289;-83
2023/05/25 09:35:08;;;;;;;12.20;9.38;;;;;;;;;;5034798;28;20325;-85
2023/05/25 09:37:36;;;;;;;13.68;9.48;;;;;;;;;;5037036;28;20236;-86
2023/05/25 09:40:05;;;;;;;16.27;10.45;;;;;;;;;;5037228;28;20206;-86
2023/05/25 09:42:33;;;;;;;13.00;10.10;;;;;;;;;;5036349;28;20203;-84
2023/05/25 09:45:00;;;;;;;9.65;8.27;;;;;;;;;;5036970;28;20240;-86
2023/05/25 09:47:29;;;;;;;13.43;10.20;;;;;;;;;;5035484;28;20340;-85
2023/05/25 09:49:58;;;;;;;14.27;11.45;;;;;;;;;;5035378;28;20206;-86
2023/05/25 09:52:25;;;;;;;14.88;10.25;;;;;;;;;;5035424;28;20213;-88
2023/05/25 09:54:54;;;;;;;16.40;10.15;;;;;;;;;;5035737;28;20228;-86
2023/05/25 09:57:22;;;;;;;11.13;9.40;;;;;;;;;;5035808;28;20784;-85
2023/05/25 09:59:49;;;;;;;10.93;8.18;;;;;;;;;;5036460;28;20648;-85
2023/05/25 10:02:17;;;;;;;14.43;10.52;;;;;;;;;;5034343;28;20662;-86
2023/05/25 10:04:47;;;;;;;12.43;9.15;;;;;;;;;;5034161;28;20312;-83
2023/05/25 10:07:14;;;;;;;10.60;8.70;;;;;;;;;;5034737;28;20226;-85
2023/05/25 10:09:43;;;;;;;14.07;10.23;;;;;;;;;;5035035;28;20289;-86
2023/05/25 10:12:11;;;;;;;14.35;11.00;;;;;;;;;;5034851;28;20208;-82
2023/05/25 10:14:39;;;;;;;11.98;8.60;;;;;;;;;;5033779;28;20229;-83
2023/05/25 10:17:07;;;;;;;15.38;10.05;;;;;;;;;;5033968;28;20874;-82
2023/05/25 10:19:40;;;;;;;9.98;7.65;;;;;;;;;;5033881;28;20202;-85
2023/05/25 10:22:15;;;;;;;12.50;8.80;;;;;;;;;;5034140;28;20624;-83
2023/05/25 10:24:49;;;;;;;10.77;8.10;;;;;;;;;;5033711;28;20225;-83
2023/05/25 10:27:20;;;;;;;12.88;8.63;;;;;;;;;;5033588;28;20268;-82
2023/05/25 10:29:49;;;;;;;11.73;7.85;;;;;;;;;;5033402;28;20198;-82
2023/05/25 10:32:17;;;;;;;10.82;8.07;;;;;;;;;;5033853;28;20202;-82
2023/05/25 10:34:45;;;;;;;8.48;7.60;;;;;;;;;;5033020;28;20236;-82
2023/05/25 10:37:15;;;;;;;11.30;8.63;;;;;;;;;;5033646;28;20194;-82
2023/05/25 10:39:44;;;;;;;8.35;7.47;;;;;;;;;;5032880;28;20285;-82
2023/05/25 10:42:13;;;;;;;10.68;8.02;;;;;;;;;;5033004;28;20732;-83
2023/05/25 10:44:42;;;;;;;12.45;8.88;;;;;;;;;;5032915;28;20630;-82
2023/05/25 10:47:10;;;;;;;10.80;8.15;;;;;;;;;;5033615;28;20749;-82
2023/05/25 10:49:54;;;;;;;16.58;10.50;;;;;;;;;;5033041;28;20288;-82
2023/05/25 10:52:26;;;;;;;10.32;8.70;;;;;;;;;;5034002;28;20208;-82
2023/05/25 10:54:57;;;;;;;10.88;7.85;;;;;;;;;;5033190;28;20268;-82
2023/05/25 10:57:25;;;;;;;12.57;7.40;;;;;;;;;;5032730;28;20202;-83
2023/05/25 10:59:58;;;;;;;9.10;8.10;;;;;;;;;;5033011;28;20206;-83
2023/05/25 11:02:28;;;;;;;9.65;6.38;;;;;;;;;;5032807;28;20202;-82
2023/05/25 11:05:33;;;;;;;7.30;6.60;;;;;;;;;;5032915;28;20232;-84
2023/05/25 11:08:03;;;;;;;6.28;5.38;;;;;;;;;;5033099;28;20280;-82
2023/05/25 11:10:53;;;;;;;7.82;5.25;;;;;;;;;;5032892;28;20202;-83
2023/05/25 11:13:38;;;;;;;9.27;6.13;;;;;;;;;;5032934;28;20190;-84
2023/05/25 11:16:23;;;;;;;7.72;5.45;;;;;;;;;;5032356;28;20637;-82
2023/05/25 11:18:53;;;;;;;7.25;5.35;;;;;;;;;;5033091;28;20244;-83
2023/05/25 11:21:44;;;;;;;7.45;5.63;;;;;;;;;;5034487;28;20238;-83
2023/05/25 11:24:15;;;;;;;7.63;4.97;;;;;;;;;;5033258;28;20208;-83
2023/05/25 11:26:58;;;;;;;4.63;3.47;;;;;;;;;;5033347;28;20222;-82
2023/05/25 11:29:26;;;;;;;7.15;5.50;;;;;;;;;;5033361;28;20209;-84
2023/05/25 11:31:55;;;;;;;5.97;5.00;;;;;;;;;;5033293;28;20202;-83
2023/05/25 11:34:24;;;;;;;5.43;4.07;;;;;;;;;;5033144;28;20229;-83
2023/05/25 11:36:56;;;;;;;5.90;5.40;;;;;;;;;;5033135;28;20212;-82
2023/05/25 11:39:25;;;;;;;5.05;4.35;;;;;;;;;;5033354;28;20197;-82
2023/05/25 11:41:56;;;;;;;7.18;4.53;;;;;;;;;;5033349;28;20639;-82
2023/05/25 11:44:28;;;;;;;5.07;3.45;;;;;;;;;;5033020;28;20223;-84
2023/05/25 11:46:56;;;;;;;6.57;4.57;;;;;;;;;;5032912;28;20233;-81
2023/05/25 11:49:25;;;;;;;4.68;4.18;;;;;;;;;;5032868;28;20225;-82
2023/05/25 11:51:53;;;;;;;5.07;4.15;;;;;;;;;;5033315;28;20202;-83
2023/05/25 11:54:27;;;;;;;5.05;4.32;;;;;;;;;;5034105;28;20226;-83
2023/05/25 11:56:57;;;;;;;3.45;3.15;;;;;;;;;;5036827;28;20229;-83
2023/05/25 11:59:25;;;;;;;3.00;2.80;;;;;;;;;;5036558;28;20202;-82
2023/05/25 12:01:57;;;;;;;4.68;4.20;;;;;;;;;;5036607;28;20651;-82
2023/05/25 12:04:25;;;;;;;4.13;2.85;;;;;;;;;;5036804;28;20313;-82
2023/05/25 12:06:52;;;;;;;4.47;3.72;;;;;;;;;;5036102;28;20398;-83
2023/05/25 12:09:21;;;;;;;4.53;3.75;;;;;;;;;;5036388;28;20213;-82
2023/05/25 12:11:51;;;;;;;4.32;3.80;;;;;;;;;;5036086;28;20580;-83
2023/05/25 12:14:19;;;;;;;3.00;2.80;;;;;;;;;;5036005;28;20203;-84
2023/05/25 12:16:47;;;;;;;4.80;4.03;;;;;;;;;;5036324;28;20210;-82
2023/05/25 12:19:14;;;;;;;6.45;4.00;;;;;;;;;;5036104;28;20249;-81
2023/05/25 12:21:42;;;;;;;3.40;3.20;;;;;;;;;;5034908;28;20256;-83
2023/05/25 12:24:11;;;;;;;3.65;3.35;;;;;;;;;;5050556;28;20300;-83
2023/05/25 12:26:49;;;;;;;4.55;3.33;;;;;;;;;;5043125;28;20469;-82
2023/05/25 12:29:17;;;;;;;7.60;4.03;;;;;;;;;;5055416;28;20186;-81
2023/05/25 12:31:45;;;;;;;4.95;3.83;;;;;;;;;;5054845;28;20208;-82
2023/05/25 12:34:14;;;;;;;6.30;4.05;;;;;;;;;;5034756;28;20719;-82
2023/05/25 12:36:49;;;;;;;4.93;3.42;;;;;;;;;;5035289;28;20209;-84
2023/05/25 12:39:31;;;;;;;6.50;3.63;;;;;;;;;;5035041;28;20205;-82
2023/05/25 12:42:01;;;;;;;5.45;4.50;;;;;;;;;;5035306;28;20308;-83
2023/05/25 12:44:31;;;;;;;5.93;3.85;;;;;;;;;;5035170;28;20228;-83
2023/05/25 12:47:11;;;;;;;5.28;4.07;;;;;;;;;;5035440;28;20214;-82
2023/05/25 12:49:39;;;;;;;5.05;3.75;;;;;;;;;;5035074;28;20213;-82
2023/05/25 12:52:08;;;;;;;4.25;3.85;;;;;;;;;;5034997;28;20737;-81
2023/05/25 12:54:43;;;;;;;3.83;3.35;;;;;;;;;;5034811;28;20224;-81
2023/05/25 12:57:14;;;;;;;4.30;3.08;;;;;;;;;;5035091;28;20284;-82
2023/05/25 12:59:43;;;;;;;7.97;4.55;;;;;;;;;;5034859;28;20206;-82
2023/05/25 13:02:12;;;;;;;6.30;3.58;;;;;;;;;;5034582;28;20206;-83
2023/05/25 13:04:41;;;;;;;5.05;4.15;;;;;;;;;;5034469;28;20695;-82
2023/05/25 13:07:09;;;;;;;4.22;3.63;;;;;;;;;;5033725;28;20293;-82
2023/05/25 13:09:37;;;;;;;5.15;3.78;;;;;;;;;;5034591;28;20223;-82
2023/05/25 13:12:06;;;;;;;3.92;3.38;;;;;;;;;;5034535;28;20199;-83
2023/05/25 13:14:35;;;;;;;6.70;4.15;;;;;;;;;;5034311;28;20223;-83
2023/05/25 13:17:02;;;;;;;3.83;3.38;;;;;;;;;;5034630;28;20739;-82
2023/05/25 13:19:30;;;;;;;5.82;3.63;;;;;;;;;;5034456;28;20294;-83
2023/05/25 13:21:57;;;;;;;3.13;2.83;;;;;;;;;;5034451;28;20289;-82
2023/05/25 13:24:25;;;;;;;4.70;3.25;;;;;;;;;;5034431;28;20226;-82
2023/05/25 13:26:54;;;;;;;6.80;3.78;;;;;;;;;;5034318;28;20329;-82
2023/05/25 13:29:22;;;;;;;5.80;3.63;;;;;;;;;;5034028;28;20207;-82
2023/05/25 13:31:51;;;;;;;5.07;3.55;;;;;;;;;;5034139;28;20205;-82
2023/05/25 13:34:18;;;;;;;3.50;3.05;;;;;;;;;;5033985;28;20206;-82
2023/05/25 13:36:46;;;;;;;8.00;4.18;;;;;;;;;;5033955;28;20206;-82
2023/05/25 13:39:13;;;;;;;5.00;4.07;;;;;;;;;;5033856;28;20746;-84
2023/05/25 13:41:41;;;;;;;4.78;3.85;;;;;;;;;;5034915;28;20230;-82
2023/05/25 13:44:11;;;;;;;4.93;3.80;;;;;;;;;;5034933;28;20206;-84
2023/05/25 13:46:38;;;;;;;4.50;3.97;;;;;;;;;;5034566;28;20205;-82
2023/05/25 13:49:07;;;;;;;3.67;3.38;;;;;;;;;;5033599;28;20222;-83
2023/05/25 13:51:36;;;;;;;4.55;3.85;;;;;;;;;;5037598;28;20655;-82
2023/05/25 13:54:04;;;;;;;4.45;3.50;;;;;;;;;;5053867;28;20202;-82
2023/05/25 13:56:32;;;;;;;3.65;3.00;;;;;;;;;;5053960;28;20693;-82
2023/05/25 13:58:59;;;;;;;5.15;3.95;;;;;;;;;;5054191;28;20285;-83
2023/05/25 14:01:27;;;;;;;3.70;3.40;;;;;;;;;;5053547;28;20256;-83
2023/05/25 14:03:56;;;;;;;4.07;3.67;;;;;;;;;;5036291;28;20202;-83
2023/05/25 14:06:26;;;;;;;4.55;3.30;;;;;;;;;;5033628;28;20757;-82
2023/05/25 14:08:53;;;;;;;3.67;3.22;;;;;;;;;;5033504;28;20314;-82
2023/05/25 14:11:21;;;;;;;6.57;3.83;;;;;;;;;;5033495;28;20647;-82
2023/05/25 14:13:48;;;;;;;5.47;3.97;;;;;;;;;;5033814;28;20213;-83
2023/05/25 14:16:16;;;;;;;4.65;4.22;;;;;;;;;;5033185;28;20250;-82
2023/05/25 14:18:43;;;;;;;3.70;3.40;;;;;;;;;;5033205;28;20552;-82
2023/05/25 14:21:11;;;;;;;4.65;3.40;;;;;;;;;;5034171;28;20745;-82
2023/05/25 14:23:40;;;;;;;5.60;3.63;;;;;;;;;;5053333;28;20208;-83
2023/05/25 14:26:08;;;;;;;4.30;3.67;;;;;;;;;;5053224;28;20223;-82
2023/05/25 14:28:35;;;;;;;6.68;4.22;;;;;;;;;;5053072;28;20221;-83
2023/05/25 14:31:03;;;;;;;3.60;3.30;;;;;;;;;;5053115;28;20206;-83
2023/05/25 14:33:30;;;;;;;6.72;4.25;;;;;;;;;;5038401;28;20210;-82
2023/05/25 14:35:58;;;;;;;4.80;4.15;;;;;;;;;;5032775;28;20675;-82
2023/05/25 14:38:25;;;;;;;5.88;3.83;;;;;;;;;;5032904;28;20202;-84
2023/05/25 14:40:54;;;;;;;5.10;4.18;;;;;;;;;;5032812;28;20245;-84
2023/05/25 14:43:21;;;;;;;4.05;3.67;;;;;;;;;;5032997;28;20206;-82
2023/05/25 14:45:49;;;;;;;4.78;3.38;;;;;;;;;;5032592;28;20822;-82
2023/05/25 14:48:17;;;;;;;6.07;3.25;;;;;;;;;;5032721;28;20198;-82